sensor_id;sensor_type;location;lat;lon;timestamp;pressure;altitude;pressure_sealevel;temperature;humidity
40171;BME280;37650;52.790;18.268;2023-04-26T00:00:02;99945.84;;;4.18;86.35
40171;BME280;37650;52.790;18.268;2023-04-26T00:03:46;99945.55;;;4.16;86.68
40171;BME280;37650;52.790;18.268;2023-04-26T00:07:07;99946.26;;;4.16;86.68
40171;BME280;37650;52.790;18.268;2023-04-26T00:10:30;99942.11;;;4.15;86.88
40171;BME280;37650;52.790;18.268;2023-04-26T00:13:51;99942.48;;;4.12;87.24
40171;BME280;37650;52.790;18.268;2023-04-26T00:17:13;99943.56;;;4.11;87.33
40171;BME280;37650;52.790;18.268;2023-04-26T00:20:34;99942.38;;;4.09;87.37
40171;BME280;37650;52.790;18.268;2023-04-26T00:23:55;99946.63;;;4.04;87.68
40171;BME280;37650;52.790;18.268;2023-04-26T00:27:18;99946.16;;;4.01;88.06
40171;BME280;37650;52.790;18.268;2023-04-26T00:30:39;99948.86;;;3.96;88.25
40171;BME280;37650;52.790;18.268;2023-04-26T00:34:07;99947.85;;;3.95;88.62
40171;BME280;37650;52.790;18.268;2023-04-26T00:37:28;99950.92;;;3.96;88.81
40171;BME280;37650;52.790;18.268;2023-04-26T00:40:49;99948.17;;;3.95;88.96
40171;BME280;37650;52.790;18.268;2023-04-26T00:44:11;99952.19;;;3.94;89.11
40171;BME280;37650;52.790;18.268;2023-04-26T00:47:33;99955.55;;;3.90;89.27
40171;BME280;37650;52.790;18.268;2023-04-26T00:50:54;99950.41;;;3.86;89.39
40171;BME280;37650;52.790;18.268;2023-04-26T00:54:17;99953.05;;;3.83;89.87
40171;BME280;37650;52.790;18.268;2023-04-26T00:57:39;99950.93;;;3.75;90.02
40171;BME280;37650;52.790;18.268;2023-04-26T01:01:00;99956.46;;;3.76;90.34
40171;BME280;37650;52.790;18.268;2023-04-26T01:04:22;99959.40;;;3.77;90.15
40171;BME280;37650;52.790;18.268;2023-04-26T01:07:47;99955.94;;;3.76;90.49
40171;BME280;37650;52.790;18.268;2023-04-26T01:11:09;99957.52;;;3.75;90.49
40171;BME280;37650;52.790;18.268;2023-04-26T01:14:34;99955.31;;;3.72;90.79
40171;BME280;37650;52.790;18.268;2023-04-26T01:17:56;99955.52;;;3.70;90.94
40171;BME280;37650;52.790;18.268;2023-04-26T01:21:22;99955.93;;;3.66;91.34
40171;BME280;37650;52.790;18.268;2023-04-26T01:24:50;99955.04;;;3.68;91.32
40171;BME280;37650;52.790;18.268;2023-04-26T01:28:11;99961.76;;;3.71;91.83
40171;BME280;37650;52.790;18.268;2023-04-26T01:31:33;99962.05;;;3.75;91.74
40171;BME280;37650;52.790;18.268;2023-04-26T01:34:54;99964.73;;;3.80;92.20
40171;BME280;37650;52.790;18.268;2023-04-26T01:38:15;99966.58;;;3.85;92.26
40171;BME280;37650;52.790;18.268;2023-04-26T01:41:38;99964.23;;;3.90;92.26
40171;BME280;37650;52.790;18.268;2023-04-26T01:44:59;99965.55;;;3.95;92.63
40171;BME280;37650;52.790;18.268;2023-04-26T01:48:20;99965.94;;;4.01;92.58
40171;BME280;37650;52.790;18.268;2023-04-26T01:51:42;99961.09;;;4.10;92.88
40171;BME280;37650;52.790;18.268;2023-04-26T01:55:03;99963.52;;;4.20;92.74
40171;BME280;37650;52.790;18.268;2023-04-26T01:58:25;99960.61;;;4.28;92.51
40171;BME280;37650;52.790;18.268;2023-04-26T02:01:46;99963.24;;;4.36;92.73
40171;BME280;37650;52.790;18.268;2023-04-26T02:05:10;99963.85;;;4.41;92.75
40171;BME280;37650;52.790;18.268;2023-04-26T02:08:32;99967.25;;;4.44;92.66
40171;BME280;37650;52.790;18.268;2023-04-26T02:11:53;99967.82;;;4.51;92.72
40171;BME280;37650;52.790;18.268;2023-04-26T02:15:15;99964.19;;;4.58;92.72
40171;BME280;37650;52.790;18.268;2023-04-26T02:18:36;99962.52;;;4.64;92.48
40171;BME280;37650;52.790;18.268;2023-04-26T02:21:58;99960.55;;;4.69;92.47
40171;BME280;37650;52.790;18.268;2023-04-26T02:25:19;99963.04;;;4.74;92.65
40171;BME280;37650;52.790;18.268;2023-04-26T02:28:41;99960.20;;;4.76;92.51
40171;BME280;37650;52.790;18.268;2023-04-26T02:32:02;99958.95;;;4.79;92.60
40171;BME280;37650;52.790;18.268;2023-04-26T02:35:24;99955.53;;;4.84;92.41
40171;BME280;37650;52.790;18.268;2023-04-26T02:38:46;99948.16;;;4.87;92.47
40171;BME280;37650;52.790;18.268;2023-04-26T02:42:09;99951.80;;;4.88;92.60
40171;BME280;37650;52.790;18.268;2023-04-26T02:45:30;99950.63;;;4.86;92.52
40171;BME280;37650;52.790;18.268;2023-04-26T02:48:53;99949.88;;;4.80;92.39
40171;BME280;37650;52.790;18.268;2023-04-26T02:52:15;99948.62;;;4.74;92.31
40171;BME280;37650;52.790;18.268;2023-04-26T02:55:37;99950.98;;;4.68;92.48
40171;BME280;37650;52.790;18.268;2023-04-26T02:58:59;99944.02;;;4.60;93.10
40171;BME280;37650;52.790;18.268;2023-04-26T03:02:21;99943.56;;;4.48;93.21
40171;BME280;37650;52.790;18.268;2023-04-26T03:05:42;99945.14;;;4.38;93.51
40171;BME280;37650;52.790;18.268;2023-04-26T03:09:04;99949.28;;;4.30;93.61
40171;BME280;37650;52.790;18.268;2023-04-26T03:12:26;99949.73;;;4.24;94.28
40171;BME280;37650;52.790;18.268;2023-04-26T03:15:47;99960.23;;;4.19;93.92
40171;BME280;37650;52.790;18.268;2023-04-26T03:19:10;99961.54;;;4.15;94.07
40171;BME280;37650;52.790;18.268;2023-04-26T03:22:32;99964.65;;;4.05;94.51
40171;BME280;37650;52.790;18.268;2023-04-26T03:25:53;99972.60;;;3.98;95.00
40171;BME280;37650;52.790;18.268;2023-04-26T03:29:16;99976.33;;;3.93;94.96
40171;BME280;37650;52.790;18.268;2023-04-26T03:32:38;99982.77;;;3.91;95.37
40171;BME280;37650;52.790;18.268;2023-04-26T03:36:00;99989.40;;;3.90;95.56
40171;BME280;37650;52.790;18.268;2023-04-26T03:39:21;99989.00;;;3.81;95.43
40171;BME280;37650;52.790;18.268;2023-04-26T03:42:43;99992.03;;;3.76;95.74
40171;BME280;37650;52.790;18.268;2023-04-26T03:46:04;99996.10;;;3.71;96.06
40171;BME280;37650;52.790;18.268;2023-04-26T03:49:27;100000.52;;;3.66;96.19
40171;BME280;37650;52.790;18.268;2023-04-26T03:52:49;100004.85;;;3.65;96.38
40171;BME280;37650;52.790;18.268;2023-04-26T03:56:10;100007.45;;;3.67;97.19
40171;BME280;37650;52.790;18.268;2023-04-26T03:59:31;100004.45;;;3.68;97.08
40171;BME280;37650;52.790;18.268;2023-04-26T04:02:53;100010.50;;;3.71;97.34
40171;BME280;37650;52.790;18.268;2023-04-26T04:06:18;100008.56;;;3.73;97.36
40171;BME280;37650;52.790;18.268;2023-04-26T04:09:39;100005.77;;;3.74;97.07
40171;BME280;37650;52.790;18.268;2023-04-26T04:13:00;100006.29;;;3.74;97.00
40171;BME280;37650;52.790;18.268;2023-04-26T04:16:21;100012.45;;;3.79;96.98
40171;BME280;37650;52.790;18.268;2023-04-26T04:19:43;100013.98;;;3.80;96.78
40171;BME280;37650;52.790;18.268;2023-04-26T04:23:07;100014.68;;;3.80;96.60
40171;BME280;37650;52.790;18.268;2023-04-26T04:26:29;100014.30;;;3.84;96.15
40171;BME280;37650;52.790;18.268;2023-04-26T04:29:50;100015.09;;;3.89;95.89
40171;BME280;37650;52.790;18.268;2023-04-26T04:33:14;100019.67;;;3.95;95.58
40171;BME280;37650;52.790;18.268;2023-04-26T04:36:36;100022.39;;;3.99;95.32
40171;BME280;37650;52.790;18.268;2023-04-26T04:39:59;100023.16;;;4.05;95.39
40171;BME280;37650;52.790;18.268;2023-04-26T04:43:20;100028.06;;;4.12;95.21
40171;BME280;37650;52.790;18.268;2023-04-26T04:46:44;100030.90;;;4.20;95.13
40171;BME280;37650;52.790;18.268;2023-04-26T04:50:06;100035.48;;;4.27;94.83
40171;BME280;37650;52.790;18.268;2023-04-26T04:53:27;100036.75;;;4.33;94.69
40171;BME280;37650;52.790;18.268;2023-04-26T04:56:48;100037.06;;;4.35;94.47
40171;BME280;37650;52.790;18.268;2023-04-26T05:00:11;100041.48;;;4.41;94.20
40171;BME280;37650;52.790;18.268;2023-04-26T05:03:47;100043.63;;;4.56;94.41
40171;BME280;37650;52.790;18.268;2023-04-26T05:07:10;100044.48;;;4.66;94.06
40171;BME280;37650;52.790;18.268;2023-04-26T05:10:35;100047.69;;;4.71;93.54
40171;BME280;37650;52.790;18.268;2023-04-26T05:13:58;100045.02;;;4.76;93.44
40171;BME280;37650;52.790;18.268;2023-04-26T05:17:19;100048.20;;;4.82;92.91
40171;BME280;37650;52.790;18.268;2023-04-26T05:20:41;100053.83;;;4.88;92.47
40171;BME280;37650;52.790;18.268;2023-04-26T05:24:02;100054.48;;;4.99;92.33
40171;BME280;37650;52.790;18.268;2023-04-26T05:27:23;100055.27;;;5.11;92.36
40171;BME280;37650;52.790;18.268;2023-04-26T05:30:48;100059.29;;;5.27;91.86
40171;BME280;37650;52.790;18.268;2023-04-26T05:34:19;100061.21;;;5.43;91.89
40171;BME280;37650;52.790;18.268;2023-04-26T05:37:44;100060.76;;;5.65;90.98
40171;BME280;37650;52.790;18.268;2023-04-26T05:41:07;100061.04;;;5.76;90.17
40171;BME280;37650;52.790;18.268;2023-04-26T05:44:28;100062.39;;;5.86;89.19
40171;BME280;37650;52.790;18.268;2023-04-26T05:47:51;100060.62;;;5.87;88.61
40171;BME280;37650;52.790;18.268;2023-04-26T05:51:12;100060.81;;;6.02;88.04
40171;BME280;37650;52.790;18.268;2023-04-26T05:54:34;100059.65;;;6.14;87.36
40171;BME280;37650;52.790;18.268;2023-04-26T05:57:56;100061.31;;;6.24;87.14
40171;BME280;37650;52.790;18.268;2023-04-26T06:01:18;100065.77;;;6.48;87.26
40171;BME280;37650;52.790;18.268;2023-04-26T06:04:39;100065.18;;;6.70;86.73
40171;BME280;37650;52.790;18.268;2023-04-26T06:08:04;100069.40;;;6.89;85.42
40171;BME280;37650;52.790;18.268;2023-04-26T06:11:25;100067.40;;;6.85;82.73
40171;BME280;37650;52.790;18.268;2023-04-26T06:14:47;100068.77;;;6.86;84.14
40171;BME280;37650;52.790;18.268;2023-04-26T06:18:12;100069.20;;;7.15;83.58
40171;BME280;37650;52.790;18.268;2023-04-26T06:21:34;100074.11;;;7.13;81.29
40171;BME280;37650;52.790;18.268;2023-04-26T06:24:55;100074.29;;;7.14;82.40
40171;BME280;37650;52.790;18.268;2023-04-26T06:28:16;100073.21;;;7.34;81.23
40171;BME280;37650;52.790;18.268;2023-04-26T06:31:37;100071.59;;;7.41;81.56
40171;BME280;37650;52.790;18.268;2023-04-26T06:34:58;100073.19;;;7.52;80.39
40171;BME280;37650;52.790;18.268;2023-04-26T06:38:19;100071.99;;;7.51;78.27
40171;BME280;37650;52.790;18.268;2023-04-26T06:41:41;100077.30;;;7.60;78.89
40171;BME280;37650;52.790;18.268;2023-04-26T06:45:04;100076.15;;;7.81;77.56
40171;BME280;37650;52.790;18.268;2023-04-26T06:48:27;100076.83;;;7.59;76.53
40171;BME280;37650;52.790;18.268;2023-04-26T06:51:48;100075.08;;;7.82;77.27
40171;BME280;37650;52.790;18.268;2023-04-26T06:55:10;100073.96;;;8.07;76.15
40171;BME280;37650;52.790;18.268;2023-04-26T06:58:31;100071.70;;;8.28;76.96
40171;BME280;37650;52.790;18.268;2023-04-26T07:01:52;100074.80;;;8.57;75.80
40171;BME280;37650;52.790;18.268;2023-04-26T07:05:15;100077.31;;;8.85;76.67
40171;BME280;37650;52.790;18.268;2023-04-26T07:08:36;100080.06;;;9.21;73.16
40171;BME280;37650;52.790;18.268;2023-04-26T07:11:57;100082.34;;;9.26;73.09
40171;BME280;37650;52.790;18.268;2023-04-26T07:15:18;100083.64;;;9.43;69.62
40171;BME280;37650;52.790;18.268;2023-04-26T07:18:40;100082.02;;;9.49;69.57
40171;BME280;37650;52.790;18.268;2023-04-26T07:22:02;100082.95;;;9.61;68.64
40171;BME280;37650;52.790;18.268;2023-04-26T07:25:24;100080.20;;;9.79;66.39
40171;BME280;37650;52.790;18.268;2023-04-26T07:28:45;100085.12;;;9.96;65.84
40171;BME280;37650;52.790;18.268;2023-04-26T07:32:06;100088.12;;;9.86;63.47
40171;BME280;37650;52.790;18.268;2023-04-26T07:35:28;100090.52;;;9.60;64.60
40171;BME280;37650;52.790;18.268;2023-04-26T07:38:50;100085.75;;;9.84;65.19
40171;BME280;37650;52.790;18.268;2023-04-26T07:42:11;100083.35;;;10.05;65.06
40171;BME280;37650;52.790;18.268;2023-04-26T07:45:33;100083.27;;;10.25;63.86
40171;BME280;37650;52.790;18.268;2023-04-26T07:48:54;100091.11;;;10.35;63.67
40171;BME280;37650;52.790;18.268;2023-04-26T07:52:16;100095.25;;;10.75;64.16
40171;BME280;37650;52.790;18.268;2023-04-26T07:55:36;100093.02;;;11.10;61.67
40171;BME280;37650;52.790;18.268;2023-04-26T07:58:58;100097.86;;;11.35;61.18
40171;BME280;37650;52.790;18.268;2023-04-26T08:02:18;100093.31;;;11.39;58.86
40171;BME280;37650;52.790;18.268;2023-04-26T08:05:39;100097.05;;;11.33;58.07
40171;BME280;37650;52.790;18.268;2023-04-26T08:09:01;100105.83;;;11.14;57.25
40171;BME280;37650;52.790;18.268;2023-04-26T08:12:22;100106.53;;;11.14;55.47
40171;BME280;37650;52.790;18.268;2023-04-26T08:15:44;100101.97;;;11.14;55.83
40171;BME280;37650;52.790;18.268;2023-04-26T08:19:05;100109.51;;;10.53;56.11
40171;BME280;37650;52.790;18.268;2023-04-26T08:22:27;100109.67;;;10.35;56.00
40171;BME280;37650;52.790;18.268;2023-04-26T08:25:48;100112.90;;;10.16;56.27
40171;BME280;37650;52.790;18.268;2023-04-26T08:29:09;100119.34;;;10.08;56.80
40171;BME280;37650;52.790;18.268;2023-04-26T08:32:30;100109.64;;;10.49;56.77
40171;BME280;37650;52.790;18.268;2023-04-26T08:35:53;100112.52;;;10.64;55.54
40171;BME280;37650;52.790;18.268;2023-04-26T08:39:14;100109.77;;;11.08;56.26
40171;BME280;37650;52.790;18.268;2023-04-26T08:42:41;100100.23;;;11.61;55.46
40171;BME280;37650;52.790;18.268;2023-04-26T08:46:06;100102.05;;;11.94;54.64
40171;BME280;37650;52.790;18.268;2023-04-26T08:49:39;100101.55;;;12.19;53.15
40171;BME280;37650;52.790;18.268;2023-04-26T08:53:01;100105.71;;;12.13;53.32
40171;BME280;37650;52.790;18.268;2023-04-26T08:56:24;100109.30;;;11.78;52.54
40171;BME280;37650;52.790;18.268;2023-04-26T08:59:46;100119.57;;;11.33;51.44
40171;BME280;37650;52.790;18.268;2023-04-26T09:03:10;100121.86;;;11.13;52.89
40171;BME280;37650;52.790;18.268;2023-04-26T09:06:32;100128.65;;;10.77;52.94
40171;BME280;37650;52.790;18.268;2023-04-26T09:09:57;100125.33;;;10.56;53.69
40171;BME280;37650;52.790;18.268;2023-04-26T09:13:18;100127.25;;;10.89;53.46
40171;BME280;37650;52.790;18.268;2023-04-26T09:16:39;100130.77;;;10.89;54.26
40171;BME280;37650;52.790;18.268;2023-04-26T09:20:17;100138.92;;;10.79;53.93
40171;BME280;37650;52.790;18.268;2023-04-26T09:24:07;100141.30;;;10.81;52.87
40171;BME280;37650;52.790;18.268;2023-04-26T09:27:41;100147.31;;;10.41;53.11
40171;BME280;37650;52.790;18.268;2023-04-26T09:31:05;100143.98;;;10.45;53.18
40171;BME280;37650;52.790;18.268;2023-04-26T09:34:54;100143.38;;;11.23;53.11
40171;BME280;37650;52.790;18.268;2023-04-26T09:38:17;100143.02;;;11.43;50.71
40171;BME280;37650;52.790;18.268;2023-04-26T09:41:43;100149.79;;;11.20;50.79
40171;BME280;37650;52.790;18.268;2023-04-26T09:45:05;100150.48;;;11.37;51.28
40171;BME280;37650;52.790;18.268;2023-04-26T09:48:32;100147.95;;;11.97;50.81
40171;BME280;37650;52.790;18.268;2023-04-26T09:52:04;100152.71;;;11.77;50.07
40171;BME280;37650;52.790;18.268;2023-04-26T09:55:28;100153.81;;;11.41;50.56
40171;BME280;37650;52.790;18.268;2023-04-26T09:58:56;100153.61;;;11.17;49.48
40171;BME280;37650;52.790;18.268;2023-04-26T10:02:25;100151.73;;;10.88;49.94
40171;BME280;37650;52.790;18.268;2023-04-26T10:05:47;100155.48;;;10.86;50.56
40171;BME280;37650;52.790;18.268;2023-04-26T10:09:08;100149.94;;;10.67;50.48
40171;BME280;37650;52.790;18.268;2023-04-26T10:12:29;100163.35;;;10.26;50.53
40171;BME280;37650;52.790;18.268;2023-04-26T10:15:51;100170.23;;;9.92;51.20
40171;BME280;37650;52.790;18.268;2023-04-26T10:19:12;100165.64;;;9.98;51.37
40171;BME280;37650;52.790;18.268;2023-04-26T10:22:39;100169.33;;;10.34;51.12
40171;BME280;37650;52.790;18.268;2023-04-26T10:26:04;100167.55;;;10.65;50.66
40171;BME280;37650;52.790;18.268;2023-04-26T10:33:14;100166.85;;;11.64;46.94
40171;BME280;37650;52.790;18.268;2023-04-26T10:37:08;100173.27;;;11.42;47.41
40171;BME280;37650;52.790;18.268;2023-04-26T10:40:34;100173.69;;;11.20;47.58
40171;BME280;37650;52.790;18.268;2023-04-26T10:43:58;100171.74;;;11.16;48.68
40171;BME280;37650;52.790;18.268;2023-04-26T10:47:21;100177.42;;;10.94;46.96
40171;BME280;37650;52.790;18.268;2023-04-26T10:54:47;100183.08;;;10.28;47.83
40171;BME280;37650;52.790;18.268;2023-04-26T10:58:27;100194.65;;;10.00;47.18
40171;BME280;37650;52.790;18.268;2023-04-26T11:01:51;100196.25;;;9.71;48.69
40171;BME280;37650;52.790;18.268;2023-04-26T11:05:38;100196.49;;;9.69;48.94
40171;BME280;37650;52.790;18.268;2023-04-26T11:09:02;100195.90;;;9.61;48.95
40171;BME280;37650;52.790;18.268;2023-04-26T11:12:59;100204.89;;;9.64;49.36
40171;BME280;37650;52.790;18.268;2023-04-26T11:16:20;100207.39;;;9.68;48.35
40171;BME280;37650;52.790;18.268;2023-04-26T11:19:46;100207.06;;;9.91;48.36
40171;BME280;37650;52.790;18.268;2023-04-26T11:23:07;100201.64;;;10.15;47.79
40171;BME280;37650;52.790;18.268;2023-04-26T11:26:32;100203.13;;;10.40;47.85
40171;BME280;37650;52.790;18.268;2023-04-26T11:29:56;100209.88;;;10.55;46.93
40171;BME280;37650;52.790;18.268;2023-04-26T11:33:19;100200.52;;;11.08;46.24
40171;BME280;37650;52.790;18.268;2023-04-26T11:36:43;100203.46;;;11.01;44.76
40171;BME280;37650;52.790;18.268;2023-04-26T11:40:04;100199.81;;;11.00;45.16
40171;BME280;37650;52.790;18.268;2023-04-26T11:43:37;100204.61;;;11.11;46.08
40171;BME280;37650;52.790;18.268;2023-04-26T11:47:00;100207.08;;;11.40;45.02
40171;BME280;37650;52.790;18.268;2023-04-26T11:50:24;100208.02;;;11.58;44.21
40171;BME280;37650;52.790;18.268;2023-04-26T11:53:49;100216.45;;;11.75;43.59
40171;BME280;37650;52.790;18.268;2023-04-26T11:57:15;100211.61;;;11.81;42.42
40171;BME280;37650;52.790;18.268;2023-04-26T12:01:01;100215.90;;;11.75;41.85
40171;BME280;37650;52.790;18.268;2023-04-26T12:04:29;100215.20;;;11.91;42.47
40171;BME280;37650;52.790;18.268;2023-04-26T12:07:58;100216.21;;;12.23;41.80
40171;BME280;37650;52.790;18.268;2023-04-26T12:11:19;100216.10;;;11.95;42.75
40171;BME280;37650;52.790;18.268;2023-04-26T12:14:40;100216.60;;;11.75;43.98
40171;BME280;37650;52.790;18.268;2023-04-26T12:18:06;100218.89;;;11.39;43.06
40171;BME280;37650;52.790;18.268;2023-04-26T12:21:39;100228.63;;;11.04;43.37
40171;BME280;37650;52.790;18.268;2023-04-26T12:25:05;100226.70;;;11.12;43.21
40171;BME280;37650;52.790;18.268;2023-04-26T12:28:26;100223.36;;;11.70;43.27
40171;BME280;37650;52.790;18.268;2023-04-26T12:31:48;100225.42;;;11.70;42.62
40171;BME280;37650;52.790;18.268;2023-04-26T12:35:09;100232.80;;;11.79;42.73
40171;BME280;37650;52.790;18.268;2023-04-26T12:38:31;100227.64;;;11.60;42.25
40171;BME280;37650;52.790;18.268;2023-04-26T12:41:53;100231.45;;;11.37;42.30
40171;BME280;37650;52.790;18.268;2023-04-26T12:45:16;100230.58;;;11.12;41.76
40171;BME280;37650;52.790;18.268;2023-04-26T12:48:40;100231.45;;;11.49;42.73
40171;BME280;37650;52.790;18.268;2023-04-26T12:52:02;100237.95;;;11.78;41.06
40171;BME280;37650;52.790;18.268;2023-04-26T12:55:23;100236.16;;;11.58;40.83
40171;BME280;37650;52.790;18.268;2023-04-26T12:58:45;100237.87;;;11.55;42.11
40171;BME280;37650;52.790;18.268;2023-04-26T13:02:06;100238.60;;;11.42;41.99
40171;BME280;37650;52.790;18.268;2023-04-26T13:05:27;100239.48;;;11.21;43.22
40171;BME280;37650;52.790;18.268;2023-04-26T13:08:49;100246.98;;;11.14;43.46
40171;BME280;37650;52.790;18.268;2023-04-26T13:12:10;100251.99;;;10.90;42.90
40171;BME280;37650;52.790;18.268;2023-04-26T13:15:31;100252.80;;;10.66;43.75
40171;BME280;37650;52.790;18.268;2023-04-26T13:18:52;100255.13;;;10.55;43.99
40171;BME280;37650;52.790;18.268;2023-04-26T13:22:15;100252.80;;;10.75;44.53
40171;BME280;37650;52.790;18.268;2023-04-26T13:25:37;100247.55;;;11.25;43.47
40171;BME280;37650;52.790;18.268;2023-04-26T13:28:58;100246.58;;;11.11;43.40
40171;BME280;37650;52.790;18.268;2023-04-26T13:32:19;100249.61;;;11.22;44.19
40171;BME280;37650;52.790;18.268;2023-04-26T13:35:41;100249.50;;;11.54;43.07
40171;BME280;37650;52.790;18.268;2023-04-26T13:39:03;100250.04;;;11.82;42.64
40171;BME280;37650;52.790;18.268;2023-04-26T13:42:25;100247.45;;;11.78;42.37
40171;BME280;37650;52.790;18.268;2023-04-26T13:45:46;100248.55;;;11.84;42.40
40171;BME280;37650;52.790;18.268;2023-04-26T13:49:08;100250.44;;;11.69;41.64
40171;BME280;37650;52.790;18.268;2023-04-26T13:52:34;100256.67;;;11.67;42.72
40171;BME280;37650;52.790;18.268;2023-04-26T13:55:56;100254.20;;;11.76;42.75
40171;BME280;37650;52.790;18.268;2023-04-26T13:59:18;100252.05;;;12.46;43.23
40171;BME280;37650;52.790;18.268;2023-04-26T14:02:39;100246.77;;;13.00;41.58
40171;BME280;37650;52.790;18.268;2023-04-26T14:06:00;100258.60;;;12.53;41.06
40171;BME280;37650;52.790;18.268;2023-04-26T14:09:23;100261.61;;;12.11;41.83
40171;BME280;37650;52.790;18.268;2023-04-26T14:12:44;100263.58;;;11.70;42.11
40171;BME280;37650;52.790;18.268;2023-04-26T14:16:06;100271.02;;;11.35;42.52
40171;BME280;37650;52.790;18.268;2023-04-26T14:19:28;100279.23;;;10.93;42.92
40171;BME280;37650;52.790;18.268;2023-04-26T14:22:49;100286.22;;;10.63;43.71
40171;BME280;37650;52.790;18.268;2023-04-26T14:26:11;100285.95;;;10.24;43.25
40171;BME280;37650;52.790;18.268;2023-04-26T14:29:32;100287.16;;;9.95;43.97
40171;BME280;37650;52.790;18.268;2023-04-26T14:32:53;100290.41;;;9.84;44.54
40171;BME280;37650;52.790;18.268;2023-04-26T14:36:15;100290.30;;;9.77;44.94
40171;BME280;37650;52.790;18.268;2023-04-26T14:39:36;100292.02;;;9.78;45.30
40171;BME280;37650;52.790;18.268;2023-04-26T14:42:58;100295.23;;;9.90;45.57
40171;BME280;37650;52.790;18.268;2023-04-26T14:46:19;100289.81;;;10.05;45.68
40171;BME280;37650;52.790;18.268;2023-04-26T14:49:41;100290.90;;;10.38;45.43
40171;BME280;37650;52.790;18.268;2023-04-26T14:53:02;100284.98;;;11.07;44.86
40171;BME280;37650;52.790;18.268;2023-04-26T14:56:24;100278.44;;;13.64;42.39
40171;BME280;37650;52.790;18.268;2023-04-26T14:59:46;100279.52;;;13.68;41.38
40171;BME280;37650;52.790;18.268;2023-04-26T15:03:07;100283.11;;;12.77;42.15
40171;BME280;37650;52.790;18.268;2023-04-26T15:06:29;100288.52;;;12.06;42.83
40171;BME280;37650;52.790;18.268;2023-04-26T15:09:53;100292.70;;;11.59;44.01
40171;BME280;37650;52.790;18.268;2023-04-26T15:13:14;100299.88;;;11.21;44.31
40171;BME280;37650;52.790;18.268;2023-04-26T15:16:36;100305.09;;;10.74;44.51
40171;BME280;37650;52.790;18.268;2023-04-26T15:19:58;100309.80;;;10.29;45.09
40171;BME280;37650;52.790;18.268;2023-04-26T15:23:20;100311.30;;;10.06;46.18
40171;BME280;37650;52.790;18.268;2023-04-26T15:26:41;100313.15;;;9.89;46.35
40171;BME280;37650;52.790;18.268;2023-04-26T15:30:04;100312.51;;;9.72;46.88
40171;BME280;37650;52.790;18.268;2023-04-26T15:33:32;100313.23;;;9.67;47.43
40171;BME280;37650;52.790;18.268;2023-04-26T15:36:53;100314.35;;;9.65;47.94
40171;BME280;37650;52.790;18.268;2023-04-26T15:40:15;100317.86;;;9.64;48.19
40171;BME280;37650;52.790;18.268;2023-04-26T15:43:37;100320.98;;;9.65;48.52
40171;BME280;37650;52.790;18.268;2023-04-26T15:46:59;100323.52;;;9.78;49.00
40171;BME280;37650;52.790;18.268;2023-04-26T15:50:22;100319.45;;;10.14;48.94
40171;BME280;37650;52.790;18.268;2023-04-26T15:53:44;100318.52;;;10.44;48.89
40171;BME280;37650;52.790;18.268;2023-04-26T15:57:05;100319.24;;;10.48;47.73
40171;BME280;37650;52.790;18.268;2023-04-26T16:00:26;100319.53;;;10.31;48.52
40171;BME280;37650;52.790;18.268;2023-04-26T16:03:48;100320.37;;;10.18;48.35
40171;BME280;37650;52.790;18.268;2023-04-26T16:07:10;100322.04;;;10.00;48.14
40171;BME280;37650;52.790;18.268;2023-04-26T16:10:33;100323.23;;;9.81;48.58
40171;BME280;37650;52.790;18.268;2023-04-26T16:14:01;100327.01;;;9.68;48.57
40171;BME280;37650;52.790;18.268;2023-04-26T16:17:22;100330.59;;;9.56;48.85
40171;BME280;37650;52.790;18.268;2023-04-26T16:20:43;100336.58;;;9.44;48.92
40171;BME280;37650;52.790;18.268;2023-04-26T16:24:05;100341.81;;;9.28;49.58
40171;BME280;37650;52.790;18.268;2023-04-26T16:27:28;100347.48;;;9.10;50.30
40171;BME280;37650;52.790;18.268;2023-04-26T16:30:51;100352.51;;;8.95;51.09
40171;BME280;37650;52.790;18.268;2023-04-26T16:34:13;100350.40;;;8.83;51.34
40171;BME280;37650;52.790;18.268;2023-04-26T16:37:35;100354.35;;;8.80;51.61
40171;BME280;37650;52.790;18.268;2023-04-26T16:40:59;100361.55;;;8.80;51.50
40171;BME280;37650;52.790;18.268;2023-04-26T16:44:21;100363.19;;;8.77;51.63
40171;BME280;37650;52.790;18.268;2023-04-26T16:47:43;100364.23;;;8.77;51.86
40171;BME280;37650;52.790;18.268;2023-04-26T16:51:05;100369.38;;;8.75;51.79
40171;BME280;37650;52.790;18.268;2023-04-26T16:54:27;100367.45;;;8.76;52.16
40171;BME280;37650;52.790;18.268;2023-04-26T16:57:53;100368.04;;;8.73;51.60
40171;BME280;37650;52.790;18.268;2023-04-26T17:01:14;100377.66;;;8.67;51.20
40171;BME280;37650;52.790;18.268;2023-04-26T17:04:36;100383.36;;;8.64;51.28
40171;BME280;37650;52.790;18.268;2023-04-26T17:08:00;100387.55;;;8.58;51.30
40171;BME280;37650;52.790;18.268;2023-04-26T17:11:23;100390.62;;;8.54;52.04
40171;BME280;37650;52.790;18.268;2023-04-26T17:14:44;100392.77;;;8.53;52.20
40171;BME280;37650;52.790;18.268;2023-04-26T17:18:06;100396.98;;;8.52;52.59
40171;BME280;37650;52.790;18.268;2023-04-26T17:21:29;100399.96;;;8.52;53.00
40171;BME280;37650;52.790;18.268;2023-04-26T17:24:50;100401.67;;;8.54;53.57
40171;BME280;37650;52.790;18.268;2023-04-26T17:28:13;100400.09;;;8.54;53.60
40171;BME280;37650;52.790;18.268;2023-04-26T17:31:35;100398.16;;;8.48;53.84
40171;BME280;37650;52.790;18.268;2023-04-26T17:34:56;100403.77;;;8.47;54.15
40171;BME280;37650;52.790;18.268;2023-04-26T17:38:19;100407.14;;;8.45;54.48
40171;BME280;37650;52.790;18.268;2023-04-26T17:41:40;100406.95;;;8.39;54.65
40171;BME280;37650;52.790;18.268;2023-04-26T17:45:02;100406.70;;;8.36;54.74